KMMH

Details ICAO KMMH (MMH)
Name Mammoth Yosemite
Region United States
Timezone America/Los_Angeles (UTC-8.0)
Plans Departing 29
Arriving 47
Stats Elevation 7,128 ft / 2,173 m (AMSL)
Location 37.624049° -118.838737°
Runways 1
Magnetic Variation 12.823° E
Sunrise 2017-12-16 15:05:22 UTC / 2017-12-16 07:05:22 Local
Sunset 2017-12-17 00:39:41 UTC / 2017-12-16 16:39:41 Local
Advertisement - Login to hide

Runways

ID Width Length Bearing (true) Bearing (mag) Surface Threshold Offset Overrun Length
09 98 ft / 30 m 6,987 ft / 2,130 m 109.02° 96.20° Asphalt 0 ft / 0 m 2,999 ft / 914 m
27 98 ft / 30 m 6,987 ft / 2,130 m 289.03° 276.21° Asphalt 0 ft / 0 m 0 ft / 0 m

Map

Weather


0- 5 10 15 20 25 30 35+ Temperature / ° C

Clouds and Precipitation
Forecast for 2017-12-16 12:00 UTC. Updated 26 minutes ago

Ground ~20,000 ft ~40,000 ft Winds

METAR

KMMH 160935Z AUTO 26003KT 10SM SCT110 06/M08 A2994 RMK AO2 T00571083 PWINO

TAF

TAF KMMH 160525Z 1606/1706 25011G20KT P6SM OVC160 FM161500 28020G35KT P6SM SCT080 SCT120

Frequencies

Recorded 118.05 MHz AWOS 3
Unicom 122.80 MHz CTAF/UNICOM
Warning: Do not use this data for real-world aviation or navigation. No guarantee of current accuracy is given.